Time;durP1;ratioP1;P1;durP2;ratioP2;P2;SDS_P1;SDS_P2;PMS_P1;PMS_P2;Temp;Humidity;BMP_temperature;BMP_pressure;BME280_temperature;BME280_humidity;BME280_pressure;Samples;Min_cycle;Max_cycle;Signal;HPM_P1;HPM_P2
2023/05/30 00:00:13;;;;;;;0.10;0.10;;;16.00;99.90;;;;;;5044186;28;20178;-80
2023/05/30 00:02:41;;;;;;;0.10;0.10;;;15.90;99.90;;;;;;5040386;28;20639;-81
2023/05/30 00:05:07;;;;;;;0.00;0.00;;;15.90;99.90;;;;;;5042731;28;20189;-80
2023/05/30 00:07:33;;;;;;;0.10;0.10;;;15.90;99.90;;;;;;5043306;28;20211;-79
2023/05/30 00:09:59;;;;;;;1.90;0.60;;;15.90;99.90;;;;;;5039425;28;20563;-81
2023/05/30 00:12:24;;;;;;;0.10;0.10;;;15.80;99.90;;;;;;5042205;28;20185;-81
2023/05/30 00:14:50;;;;;;;0.10;0.10;;;15.80;99.90;;;;;;5044266;28;20210;-81
2023/05/30 00:17:20;;;;;;;0.10;0.10;;;15.80;99.90;;;;;;5043293;28;20270;-80
2023/05/30 00:19:45;;;;;;;0.10;0.10;;;15.80;99.90;;;;;;5042849;28;20184;-81
2023/05/30 00:22:11;;;;;;;0.10;0.10;;;15.80;99.90;;;;;;5041045;28;20182;-80
2023/05/30 00:24:37;;;;;;;0.10;0.10;;;15.80;99.90;;;;;;5043098;28;20607;-81
2023/05/30 00:27:02;;;;;;;0.10;0.10;;;15.80;99.90;;;;;;5042350;28;20204;-80
2023/05/30 00:29:28;;;;;;;0.10;0.10;;;15.70;99.90;;;;;;5042656;28;20608;-81
2023/05/30 00:31:53;;;;;;;0.10;0.10;;;15.70;99.90;;;;;;5044076;28;20573;-80
2023/05/30 00:34:19;;;;;;;0.10;0.10;;;15.70;99.90;;;;;;5039218;28;22241;-81
2023/05/30 00:36:44;;;;;;;0.10;0.10;;;15.70;99.90;;;;;;5043229;28;20193;-81
2023/05/30 00:39:10;;;;;;;0.10;0.10;;;15.60;99.90;;;;;;5041811;28;20196;-80
2023/05/30 00:41:35;;;;;;;0.10;0.10;;;15.60;99.90;;;;;;5042346;28;20741;-81
2023/05/30 00:44:01;;;;;;;0.10;0.10;;;15.60;99.90;;;;;;5040175;28;20201;-80
2023/05/30 00:46:29;;;;;;;0.10;0.10;;;15.70;99.90;;;;;;5044969;28;20692;-80
2023/05/30 00:48:56;;;;;;;0.10;0.10;;;15.70;99.90;;;;;;5042899;28;20181;-81
2023/05/30 00:51:26;;;;;;;0.10;0.10;;;15.70;99.90;;;;;;5042810;28;20227;-81
2023/05/30 00:53:52;;;;;;;0.10;0.10;;;15.60;99.90;;;;;;5042152;28;20774;-80
2023/05/30 00:56:18;;;;;;;0.10;0.10;;;15.70;99.90;;;;;;5041058;28;20232;-81
2023/05/30 00:58:44;;;;;;;0.10;0.10;;;15.70;99.90;;;;;;5044653;28;20598;-80
2023/05/30 01:01:09;;;;;;;0.10;0.10;;;15.70;99.90;;;;;;5043359;28;20196;-82
2023/05/30 01:03:35;;;;;;;0.10;0.10;;;15.70;99.90;;;;;;5043640;28;20756;-80
2023/05/30 01:06:03;;;;;;;0.10;0.10;;;15.70;99.90;;;;;;5039894;28;20210;-80
2023/05/30 01:08:28;;;;;;;0.10;0.10;;;15.60;99.90;;;;;;5043670;28;20565;-81
2023/05/30 01:11:08;;;;;;;0.10;0.10;;;15.70;99.90;;;;;;5047842;28;20185;-80
2023/05/30 01:13:50;;;;;;;0.10;0.10;;;15.70;99.90;;;;;;5046589;28;20201;-80
2023/05/30 01:16:23;;;;;;;0.10;0.10;;;15.50;99.90;;;;;;5048207;28;20540;-80
2023/05/30 01:18:58;;;;;;;0.10;0.10;;;15.50;99.90;;;;;;5048610;28;20693;-80
2023/05/30 01:21:26;;;;;;;0.10;0.10;;;15.40;99.90;;;;;;5046897;28;20181;-80
2023/05/30 01:24:15;;;;;;;0.10;0.10;;;15.40;99.90;;;;;;5045856;28;20211;-80
2023/05/30 01:27:04;;;;;;;0.10;0.10;;;15.40;99.90;;;;;;5047016;28;20228;-80
2023/05/30 01:29:32;;;;;;;0.10;0.10;;;15.40;99.90;;;;;;5047197;28;20647;-80
2023/05/30 01:32:00;;;;;;;0.10;0.10;;;15.40;99.90;;;;;;5046631;28;20567;-80
2023/05/30 01:34:26;;;;;;;0.10;0.10;;;15.20;99.90;;;;;;5048143;28;20205;-80
2023/05/30 01:36:52;;;;;;;0.10;0.10;;;15.10;99.90;;;;;;5055744;28;20190;-80
2023/05/30 01:39:18;;;;;;;0.00;0.00;;;15.00;99.90;;;;;;5044504;28;20590;-80
2023/05/30 01:41:53;;;;;;;0.10;0.10;;;15.00;99.90;;;;;;5044259;28;20291;-79
2023/05/30 01:44:32;;;;;;;0.10;0.10;;;14.90;99.90;;;;;;5046037;28;20224;-81
2023/05/30 01:47:06;;;;;;;0.10;0.10;;;14.80;99.90;;;;;;5046574;28;20216;-80
2023/05/30 01:49:46;;;;;;;0.00;0.00;;;14.70;99.90;;;;;;5047148;28;20205;-80
2023/05/30 01:52:17;;;;;;;0.10;0.10;;;14.60;99.90;;;;;;5045064;28;20184;-80
2023/05/30 01:54:47;;;;;;;0.10;0.10;;;14.50;99.90;;;;;;5046541;28;20293;-80
2023/05/30 01:57:15;;;;;;;0.10;0.10;;;14.50;99.90;;;;;;5048312;28;20283;-80
2023/05/30 01:59:42;;;;;;;0.10;0.10;;;14.40;99.90;;;;;;5045958;28;20194;-80
2023/05/30 02:02:09;;;;;;;0.10;0.10;;;14.40;99.90;;;;;;5045455;28;20277;-80
2023/05/30 02:04:35;;;;;;;0.10;0.10;;;14.40;99.90;;;;;;5046906;28;20220;-80
2023/05/30 02:07:01;;;;;;;0.10;0.10;;;14.40;99.90;;;;;;5045372;28;20206;-80
2023/05/30 02:09:27;;;;;;;0.10;0.10;;;14.40;99.90;;;;;;5045118;28;20222;-80
2023/05/30 02:11:52;;;;;;;0.10;0.10;;;14.40;99.90;;;;;;5046630;28;20511;-81
2023/05/30 02:14:19;;;;;;;0.10;0.10;;;14.40;99.90;;;;;;5046221;28;20286;-80
2023/05/30 02:16:45;;;;;;;0.10;0.10;;;14.30;99.90;;;;;;5046320;28;20595;-80
2023/05/30 02:19:12;;;;;;;0.10;0.10;;;14.30;99.90;;;;;;5045491;28;20193;-80
2023/05/30 02:21:38;;;;;;;0.10;0.10;;;14.30;99.90;;;;;;5043704;28;20609;-80
2023/05/30 02:24:04;;;;;;;0.10;0.10;;;14.20;99.90;;;;;;5047511;28;20241;-80
2023/05/30 02:26:29;;;;;;;0.10;0.10;;;14.20;99.90;;;;;;5046651;28;20250;-80
2023/05/30 02:28:55;;;;;;;0.10;0.10;;;14.20;99.90;;;;;;5048171;28;20193;-80
2023/05/30 02:31:21;;;;;;;0.10;0.10;;;14.10;99.90;;;;;;5045256;28;21079;-80
2023/05/30 02:33:46;;;;;;;0.10;0.10;;;14.00;99.90;;;;;;5045792;28;20204;-80
2023/05/30 02:36:12;;;;;;;0.10;0.10;;;14.00;99.90;;;;;;5045183;28;20185;-80
2023/05/30 02:38:38;;;;;;;0.10;0.10;;;14.00;99.90;;;;;;5045174;28;20280;-80
2023/05/30 02:41:03;;;;;;;0.10;0.10;;;13.90;99.90;;;;;;5045992;28;20284;-80
2023/05/30 02:43:29;;;;;;;0.10;0.10;;;13.90;99.90;;;;;;5045407;28;20304;-80
2023/05/30 02:45:54;;;;;;;0.10;0.10;;;13.90;99.90;;;;;;5045886;28;20212;-80
2023/05/30 02:48:20;;;;;;;0.10;0.10;;;13.80;99.90;;;;;;5045542;28;20181;-80
2023/05/30 02:50:46;;;;;;;0.10;0.10;;;13.80;99.90;;;;;;5045472;28;20190;-80
2023/05/30 02:53:11;;;;;;;7.33;3.60;;;13.80;99.90;;;;;;5045945;28;20204;-81
2023/05/30 02:55:42;;;;;;;0.10;0.10;;;13.70;99.90;;;;;;5044236;28;20276;-80
2023/05/30 02:58:13;;;;;;;0.00;0.00;;;13.60;99.90;;;;;;5043875;28;20183;-80
2023/05/30 03:00:40;;;;;;;0.10;0.10;;;13.50;99.90;;;;;;5042805;28;20239;-80
2023/05/30 03:03:08;;;;;;;0.10;0.10;;;13.50;99.90;;;;;;5045739;28;20211;-80
2023/05/30 03:05:34;;;;;;;0.10;0.10;;;13.40;99.90;;;;;;5044253;28;20217;-80
2023/05/30 03:08:00;;;;;;;0.10;0.10;;;13.40;99.90;;;;;;5043298;28;20182;-80
2023/05/30 03:10:29;;;;;;;0.10;0.10;;;13.40;99.90;;;;;;5045335;28;20201;-79
2023/05/30 03:12:55;;;;;;;0.10;0.10;;;13.30;99.90;;;;;;5045245;28;20719;-80
2023/05/30 03:15:21;;;;;;;0.10;0.10;;;13.40;99.90;;;;;;5045593;28;20182;-80
2023/05/30 03:17:47;;;;;;;0.10;0.10;;;13.40;99.90;;;;;;5045416;28;20184;-80
2023/05/30 03:20:13;;;;;;;0.10;0.10;;;13.40;99.90;;;;;;5046467;28;20671;-79
2023/05/30 03:22:39;;;;;;;0.10;0.10;;;13.50;99.90;;;;;;5043338;28;20189;-80
2023/05/30 03:25:05;;;;;;;0.10;0.10;;;13.50;99.90;;;;;;5045389;28;20189;-80
2023/05/30 03:27:31;;;;;;;0.10;0.10;;;13.40;99.90;;;;;;5044962;28;20303;-80
2023/05/30 03:29:56;;;;;;;0.10;0.10;;;13.50;99.90;;;;;;5046789;28;20268;-80
2023/05/30 03:32:22;;;;;;;0.10;0.10;;;13.60;99.90;;;;;;5044286;28;20243;-80
2023/05/30 03:34:48;;;;;;;0.10;0.10;;;13.60;99.90;;;;;;5043408;28;20563;-80
2023/05/30 03:37:14;;;;;;;0.10;0.10;;;13.60;99.90;;;;;;5044132;28;20189;-79
2023/05/30 03:39:40;;;;;;;0.10;0.10;;;13.60;99.90;;;;;;5043163;28;21067;-80
2023/05/30 03:42:06;;;;;;;0.10;0.10;;;13.70;99.90;;;;;;5044494;28;20652;-80
2023/05/30 03:44:31;;;;;;;0.10;0.10;;;13.90;99.90;;;;;;5046456;28;20203;-80
2023/05/30 03:46:57;;;;;;;0.10;0.10;;;14.00;99.90;;;;;;5043537;28;20328;-80
2023/05/30 03:49:22;;;;;;;0.10;0.10;;;14.20;99.90;;;;;;5044950;28;20189;-80
2023/05/30 03:51:48;;;;;;;0.10;0.10;;;14.40;99.90;;;;;;5044320;28;20286;-80
2023/05/30 03:54:13;;;;;;;0.10;0.10;;;14.40;99.90;;;;;;5047052;28;20681;-79
2023/05/30 03:56:39;;;;;;;0.10;0.10;;;14.40;99.90;;;;;;5044173;28;20227;-80
2023/05/30 03:59:04;;;;;;;0.10;0.10;;;14.60;99.90;;;;;;5044590;28;20189;-80
2023/05/30 04:01:30;;;;;;;0.10;0.10;;;14.60;99.90;;;;;;5046251;28;20639;-80
2023/05/30 04:03:56;;;;;;;0.10;0.10;;;14.70;99.90;;;;;;5044465;28;20738;-80
2023/05/30 04:06:24;;;;;;;0.10;0.10;;;14.50;99.90;;;;;;5044903;28;20218;-80
2023/05/30 04:08:50;;;;;;;0.10;0.10;;;14.40;99.90;;;;;;5045131;28;20235;-80
2023/05/30 04:11:15;;;;;;;0.10;0.10;;;14.60;99.90;;;;;;5044973;28;20650;-80
2023/05/30 04:13:41;;;;;;;0.10;0.10;;;15.10;99.90;;;;;;5044248;28;20575;-80
2023/05/30 04:16:06;;;;;;;0.10;0.10;;;15.10;99.90;;;;;;5043914;28;20186;-80
2023/05/30 04:18:32;;;;;;;0.10;0.10;;;15.10;99.90;;;;;;5044320;28;20284;-79
2023/05/30 04:20:57;;;;;;;0.10;0.10;;;15.00;99.90;;;;;;5045401;28;20193;-80
2023/05/30 04:23:23;;;;;;;0.10;0.10;;;14.90;99.90;;;;;;5044000;28;20218;-80
2023/05/30 04:25:49;;;;;;;0.10;0.10;;;15.00;99.90;;;;;;5046152;28;20245;-80
2023/05/30 04:28:17;;;;;;;0.10;0.10;;;15.00;99.90;;;;;;5043930;28;20212;-80
2023/05/30 04:30:48;;;;;;;0.10;0.10;;;14.70;99.90;;;;;;5044923;28;20181;-80
2023/05/30 04:33:17;;;;;;;0.10;0.10;;;14.70;99.90;;;;;;5045602;28;20271;-80
2023/05/30 04:35:44;;;;;;;0.10;0.10;;;14.70;99.90;;;;;;5053782;28;20213;-80
2023/05/30 04:38:09;;;;;;;0.10;0.10;;;14.80;99.90;;;;;;5043896;28;20217;-80
2023/05/30 04:40:36;;;;;;;0.10;0.10;;;14.70;99.90;;;;;;5044264;28;20280;-80
2023/05/30 04:43:02;;;;;;;0.10;0.10;;;15.00;99.90;;;;;;5045303;28;20215;-80
2023/05/30 04:45:29;;;;;;;0.10;0.10;;;15.00;99.90;;;;;;5048589;28;20190;-79
2023/05/30 04:47:55;;;;;;;0.10;0.10;;;14.90;99.90;;;;;;5051577;28;20173;-80
2023/05/30 04:50:24;;;;;;;0.10;0.10;;;15.10;99.90;;;;;;5049692;28;20299;-79
2023/05/30 04:52:50;;;;;;;0.10;0.10;;;14.90;99.90;;;;;;5047741;28;20236;-79
2023/05/30 04:55:17;;;;;;;0.10;0.10;;;14.50;99.90;;;;;;5050868;28;20271;-80
2023/05/30 04:57:42;;;;;;;0.10;0.10;;;14.70;99.90;;;;;;5048262;28;20200;-80
2023/05/30 05:00:12;;;;;;;0.00;0.00;;;14.60;99.90;;;;;;5045421;28;20189;-79
2023/05/30 05:02:38;;;;;;;0.10;0.10;;;14.40;99.90;;;;;;5047435;28;20188;-79
2023/05/30 05:05:05;;;;;;;0.10;0.10;;;14.40;99.90;;;;;;5044375;28;20311;-80
2023/05/30 05:07:31;;;;;;;0.10;0.10;;;14.40;99.90;;;;;;5042858;28;20323;-78
2023/05/30 05:09:56;;;;;;;0.10;0.10;;;14.40;99.90;;;;;;5046509;28;20711;-79
2023/05/30 05:12:21;;;;;;;0.10;0.10;;;14.50;99.90;;;;;;5044580;28;20188;-79
2023/05/30 05:14:47;;;;;;;0.10;0.10;;;14.70;99.90;;;;;;5046582;28;20255;-80
2023/05/30 05:17:13;;;;;;;0.10;0.10;;;14.80;99.90;;;;;;5049775;28;20291;-80
2023/05/30 05:19:39;;;;;;;0.10;0.10;;;15.00;99.90;;;;;;5049749;28;20236;-80
2023/05/30 05:22:05;;;;;;;0.10;0.10;;;15.00;99.90;;;;;;5048740;28;20195;-80
2023/05/30 05:24:31;;;;;;;0.10;0.10;;;15.20;99.90;;;;;;5050912;28;20239;-80
2023/05/30 05:26:57;;;;;;;0.10;0.10;;;15.40;99.90;;;;;;5050239;28;20238;-80
2023/05/30 05:29:24;;;;;;;0.10;0.10;;;15.20;99.90;;;;;;5047005;28;20364;-80
2023/05/30 05:31:50;;;;;;;0.10;0.10;;;15.60;99.90;;;;;;5047443;28;20174;-79
2023/05/30 05:34:16;;;;;;;0.10;0.10;;;15.40;99.90;;;;;;5048652;28;20285;-80
2023/05/30 05:36:45;;;;;;;0.10;0.10;;;15.20;99.90;;;;;;5048949;28;20658;-80
2023/05/30 05:39:10;;;;;;;0.10;0.10;;;15.50;99.90;;;;;;5047238;28;20184;-79
2023/05/30 05:41:36;;;;;;;0.10;0.10;;;15.40;99.90;;;;;;5046843;28;20236;-80
2023/05/30 05:44:01;;;;;;;0.10;0.10;;;15.50;99.90;;;;;;5052039;28;20209;-79
2023/05/30 05:46:27;;;;;;;0.10;0.10;;;15.70;99.90;;;;;;5043542;28;20300;-81
2023/05/30 05:48:56;;;;;;;0.10;0.10;;;16.00;99.90;;;;;;5045167;28;20181;-81
2023/05/30 05:51:21;;;;;;;0.10;0.10;;;16.10;99.90;;;;;;5045134;28;20314;-80
2023/05/30 05:53:47;;;;;;;0.10;0.10;;;16.10;99.90;;;;;;5045793;28;20252;-81
2023/05/30 05:56:12;;;;;;;0.10;0.10;;;16.40;99.90;;;;;;5045224;28;20180;-81
2023/05/30 05:58:38;;;;;;;0.10;0.10;;;16.60;99.90;;;;;;5044846;28;20220;-81
2023/05/30 06:01:04;;;;;;;0.10;0.10;;;16.40;99.90;;;;;;5045842;28;20185;-82
2023/05/30 06:03:30;;;;;;;0.10;0.10;;;16.40;99.90;;;;;;5043327;28;20209;-81
2023/05/30 06:05:56;;;;;;;0.10;0.10;;;16.70;99.90;;;;;;5044777;28;20205;-81
2023/05/30 06:08:21;;;;;;;0.10;0.10;;;16.80;99.90;;;;;;5043598;28;20182;-81
2023/05/30 06:10:47;;;;;;;0.10;0.10;;;16.80;99.90;;;;;;5043805;28;20185;-82
2023/05/30 06:13:12;;;;;;;0.10;0.10;;;16.90;99.90;;;;;;5044594;28;20258;-81
2023/05/30 06:15:38;;;;;;;0.10;0.10;;;17.20;99.90;;;;;;5043704;28;20190;-80
2023/05/30 06:18:04;;;;;;;0.10;0.10;;;17.10;99.90;;;;;;5043485;28;20190;-81
2023/05/30 06:20:29;;;;;;;0.10;0.10;;;17.20;99.90;;;;;;5041713;28;20185;-81
2023/05/30 06:22:55;;;;;;;0.10;0.10;;;17.10;99.90;;;;;;5040426;28;20220;-81
2023/05/30 06:25:21;;;;;;;0.10;0.10;;;17.10;99.90;;;;;;5041622;28;20225;-81
2023/05/30 06:27:47;;;;;;;0.10;0.10;;;17.20;99.90;;;;;;5042224;28;20208;-81
2023/05/30 06:30:13;;;;;;;0.10;0.10;;;17.10;99.90;;;;;;5044472;28;20177;-81
2023/05/30 06:32:39;;;;;;;0.10;0.10;;;17.00;99.90;;;;;;5052232;28;20177;-81
2023/05/30 06:35:05;;;;;;;0.10;0.10;;;17.10;99.90;;;;;;5043219;28;20245;-82
2023/05/30 06:37:30;;;;;;;0.10;0.10;;;17.30;99.90;;;;;;5042052;28;20254;-81
2023/05/30 06:39:56;;;;;;;0.10;0.10;;;17.50;99.90;;;;;;5043220;28;20659;-81
2023/05/30 06:42:21;;;;;;;0.10;0.10;;;17.30;99.90;;;;;;5042857;28;20185;-81
2023/05/30 06:44:47;;;;;;;0.10;0.10;;;17.20;99.90;;;;;;5045444;28;20271;-81
2023/05/30 06:47:12;;;;;;;0.10;0.10;;;17.30;99.90;;;;;;5043449;28;20246;-81
2023/05/30 06:49:38;;;;;;;0.10;0.10;;;17.60;99.90;;;;;;5045885;28;20193;-81
2023/05/30 06:52:04;;;;;;;0.10;0.10;;;17.60;99.90;;;;;;5042647;28;20185;-81
2023/05/30 06:54:30;;;;;;;0.10;0.10;;;17.80;99.90;;;;;;5040829;28;20213;-80
2023/05/30 06:57:00;;;;;;;0.10;0.10;;;17.70;99.90;;;;;;5043688;28;20182;-81
2023/05/30 06:59:25;;;;;;;0.10;0.10;;;17.60;99.90;;;;;;5039517;28;20289;-82
2023/05/30 07:01:52;;;;;;;0.10;0.10;;;17.60;99.90;;;;;;5041714;28;20211;-81
2023/05/30 07:04:17;;;;;;;0.10;0.10;;;17.70;99.90;;;;;;5041508;28;20217;-80
2023/05/30 07:06:43;;;;;;;0.10;0.10;;;18.00;99.90;;;;;;5041132;28;20201;-81
2023/05/30 07:09:08;;;;;;;0.10;0.10;;;17.90;99.90;;;;;;5041189;28;20247;-80
2023/05/30 07:11:34;;;;;;;0.10;0.10;;;18.20;99.90;;;;;;5043294;28;20273;-81
2023/05/30 07:13:59;;;;;;;0.10;0.10;;;18.10;99.90;;;;;;5042507;28;20687;-80
2023/05/30 07:16:25;;;;;;;0.10;0.10;;;18.00;99.90;;;;;;5044909;28;20295;-81
2023/05/30 07:18:51;;;;;;;0.10;0.10;;;17.90;99.90;;;;;;5043322;28;20559;-81
2023/05/30 07:21:16;;;;;;;0.10;0.10;;;18.10;99.90;;;;;;5042789;28;20174;-80
2023/05/30 07:23:42;;;;;;;0.10;0.10;;;18.20;99.90;;;;;;5041179;28;20213;-81
2023/05/30 07:26:08;;;;;;;0.10;0.10;;;18.20;99.90;;;;;;5043541;28;20209;-81
2023/05/30 07:28:33;;;;;;;0.10;0.10;;;18.40;99.90;;;;;;5041186;28;20304;-80
2023/05/30 07:30:59;;;;;;;0.10;0.10;;;18.40;99.90;;;;;;5042902;28;20217;-81
2023/05/30 07:33:24;;;;;;;0.10;0.10;;;18.30;99.90;;;;;;5042764;28;20224;-80
2023/05/30 07:35:50;;;;;;;0.10;0.10;;;18.30;99.90;;;;;;5044082;28;20359;-81
2023/05/30 07:38:15;;;;;;;0.10;0.10;;;18.30;99.90;;;;;;5041851;28;20177;-80
2023/05/30 07:40:41;;;;;;;0.10;0.10;;;18.30;99.90;;;;;;5044108;28;20260;-81
2023/05/30 07:43:06;;;;;;;0.10;0.10;;;18.40;99.90;;;;;;5041108;28;20210;-81
2023/05/30 07:45:32;;;;;;;0.10;0.10;;;18.30;99.90;;;;;;5043723;28;20251;-81
2023/05/30 07:47:57;;;;;;;0.60;0.60;;;18.40;99.90;;;;;;5042655;28;20264;-81
2023/05/30 07:50:23;;;;;;;0.10;0.10;;;18.60;99.90;;;;;;5045490;28;20209;-80
2023/05/30 07:52:48;;;;;;;0.10;0.10;;;18.30;99.90;;;;;;5044396;28;20663;-81
2023/05/30 07:55:14;;;;;;;0.10;0.10;;;18.10;99.90;;;;;;5044676;28;20185;-80
2023/05/30 07:57:40;;;;;;;0.10;0.10;;;18.10;99.90;;;;;;5045176;28;20195;-81
2023/05/30 08:00:08;;;;;;;0.10;0.10;;;18.10;99.90;;;;;;5042937;28;20190;-80
2023/05/30 08:02:34;;;;;;;0.10;0.10;;;18.00;99.90;;;;;;5042161;28;20678;-80
2023/05/30 08:05:00;;;;;;;0.10;0.10;;;17.90;99.90;;;;;;5043219;28;20297;-80
2023/05/30 08:07:25;;;;;;;0.10;0.10;;;17.80;99.90;;;;;;5043275;28;20213;-80
2023/05/30 08:09:51;;;;;;;0.10;0.10;;;18.10;99.90;;;;;;5043603;28;20209;-80
2023/05/30 08:12:18;;;;;;;0.10;0.10;;;18.10;99.90;;;;;;5042571;28;20185;-80
2023/05/30 08:14:44;;;;;;;0.10;0.10;;;18.40;99.90;;;;;;5041578;28;20197;-80
2023/05/30 08:17:11;;;;;;;0.10;0.10;;;18.90;99.90;;;;;;5044055;28;20266;-80
2023/05/30 08:19:37;;;;;;;0.10;0.10;;;19.30;99.90;;;;;;5049376;28;20288;-80
2023/05/30 08:22:03;;;;;;;4.33;4.13;;;19.40;99.90;;;;;;5041054;28;20722;-80
2023/05/30 08:24:29;;;;;;;0.10;0.10;;;19.10;99.90;;;;;;5042716;28;20201;-81
2023/05/30 08:26:55;;;;;;;0.10;0.10;;;19.30;99.90;;;;;;5041858;28;20208;-81
2023/05/30 08:29:20;;;;;;;0.10;0.10;;;19.80;99.90;;;;;;5040925;28;20544;-80
2023/05/30 08:31:46;;;;;;;0.10;0.10;;;19.90;99.90;;;;;;5041711;28;20832;-80
2023/05/30 08:34:11;;;;;;;0.10;0.10;;;19.60;99.90;;;;;;5043746;28;20247;-80
2023/05/30 08:36:37;;;;;;;0.10;0.10;;;19.40;99.90;;;;;;5041331;28;20965;-81
2023/05/30 08:39:03;;;;;;;0.10;0.10;;;19.60;99.90;;;;;;5043612;28;20178;-80
2023/05/30 08:41:30;;;;;;;0.10;0.10;;;19.30;99.90;;;;;;5040681;28;20552;-81
2023/05/30 08:43:55;;;;;;;0.10;0.10;;;19.60;99.90;;;;;;5041269;28;20198;-81
2023/05/30 08:46:21;;;;;;;0.10;0.10;;;19.60;99.90;;;;;;5042706;28;20206;-80
2023/05/30 08:48:48;;;;;;;0.10;0.10;;;19.70;99.90;;;;;;5041816;28;20440;-81
2023/05/30 08:51:15;;;;;;;0.10;0.10;;;19.90;99.90;;;;;;5043259;28;20547;-81
2023/05/30 08:53:55;;;;;;;0.10;0.10;;;19.70;99.90;;;;;;5042422;28;20284;-81
2023/05/30 08:56:37;;;;;;;0.10;0.10;;;20.40;99.90;;;;;;5042064;28;20229;-81
2023/05/30 08:59:08;;;;;;;0.10;0.10;;;20.70;99.90;;;;;;5040245;28;20189;-80
2023/05/30 09:01:34;;;;;;;0.10;0.10;;;20.70;99.90;;;;;;5041300;28;20292;-80
2023/05/30 09:04:00;;;;;;;0.10;0.10;;;21.00;99.90;;;;;;5043111;28;20210;-80
2023/05/30 09:06:26;;;;;;;0.10;0.10;;;21.00;99.90;;;;;;5041222;28;20300;-80
2023/05/30 09:08:54;;;;;;;0.10;0.10;;;20.60;99.90;;;;;;5043100;28;20261;-80
2023/05/30 09:11:21;;;;;;;0.10;0.10;;;20.50;99.90;;;;;;5042978;28;20178;-81
2023/05/30 09:13:48;;;;;;;0.10;0.10;;;20.50;99.90;;;;;;5043210;28;20274;-82
2023/05/30 09:16:14;;;;;;;0.10;0.10;;;20.70;99.90;;;;;;5043449;28;20177;-80
2023/05/30 09:18:39;;;;;;;0.10;0.10;;;20.70;99.90;;;;;;5042325;28;20942;-81
2023/05/30 09:21:05;;;;;;;0.10;0.10;;;20.90;99.90;;;;;;5039402;28;20296;-81
2023/05/30 09:23:32;;;;;;;0.10;0.10;;;20.70;99.90;;;;;;5039665;28;21182;-81
2023/05/30 09:25:59;;;;;;;0.10;0.10;;;20.80;99.90;;;;;;5040594;28;20686;-81
2023/05/30 09:28:27;;;;;;;0.20;0.20;;;21.00;99.90;;;;;;5037617;28;20178;-81
2023/05/30 09:30:54;;;;;;;0.10;0.10;;;21.20;99.90;;;;;;5043801;28;20190;-81
2023/05/30 09:33:20;;;;;;;0.10;0.10;;;21.50;99.90;;;;;;5037405;28;20206;-81
2023/05/30 09:35:48;;;;;;;0.10;0.10;;;21.90;99.90;;;;;;5044023;28;20186;-81
2023/05/30 09:38:20;;;;;;;0.10;0.10;;;21.90;99.90;;;;;;5042825;28;20189;-81
2023/05/30 09:40:49;;;;;;;0.10;0.10;;;21.60;99.90;;;;;;5043602;28;20202;-81
2023/05/30 09:43:35;;;;;;;0.10;0.10;;;21.50;99.90;;;;;;5043339;28;20571;-81
2023/05/30 09:46:05;;;;;;;0.10;0.10;;;21.70;99.90;;;;;;5042626;28;20206;-81
2023/05/30 09:48:32;;;;;;;0.10;0.10;;;21.60;99.90;;;;;;5044421;28;20176;-81
2023/05/30 09:51:00;;;;;;;0.10;0.10;;;21.30;99.90;;;;;;5044809;28;20186;-81
2023/05/30 09:53:32;;;;;;;0.10;0.10;;;21.10;99.90;;;;;;5045524;28;20284;-81
2023/05/30 09:55:59;;;;;;;0.10;0.10;;;21.20;99.90;;;;;;5039810;28;20214;-81
2023/05/30 09:58:25;;;;;;;0.10;0.10;;;21.30;99.90;;;;;;5043475;28;20189;-81
2023/05/30 10:00:52;;;;;;;0.17;0.17;;;21.60;99.90;;;;;;5042816;28;20209;-81
2023/05/30 10:03:40;;;;;;;0.10;0.10;;;21.20;99.90;;;;;;5040850;28;20220;-81
2023/05/30 10:06:16;;;;;;;0.40;0.40;;;21.20;99.90;;;;;;5040253;28;20243;-81
2023/05/30 10:08:45;;;;;;;0.10;0.10;;;21.00;99.90;;;;;;5043525;28;20223;-81
2023/05/30 10:11:13;;;;;;;0.77;0.77;;;21.10;99.90;;;;;;5042851;28;20182;-81
2023/05/30 10:13:39;;;;;;;0.10;0.10;;;21.30;99.90;;;;;;5044157;28;20206;-81
2023/05/30 10:16:14;;;;;;;0.20;0.20;;;21.40;99.90;;;;;;5042698;28;20261;-81
2023/05/30 10:18:50;;;;;;;0.10;0.10;;;20.90;99.90;;;;;;5041327;28;20197;-84
2023/05/30 10:21:20;;;;;;;0.10;0.10;;;21.30;99.90;;;;;;5038948;28;20280;-81
2023/05/30 10:23:47;;;;;;;0.10;0.10;;;21.50;99.90;;;;;;5043486;28;20213;-82
2023/05/30 10:26:14;;;;;;;0.10;0.10;;;21.50;99.90;;;;;;5039716;28;20217;-82
2023/05/30 10:28:42;;;;;;;0.10;0.10;;;21.40;99.90;;;;;;5038338;28;20198;-82
2023/05/30 10:31:11;;;;;;;0.10;0.10;;;21.50;99.90;;;;;;5041158;28;20240;-82
2023/05/30 10:33:38;;;;;;;0.10;0.10;;;21.80;99.90;;;;;;5036265;28;20210;-82
2023/05/30 10:36:04;;;;;;;0.10;0.10;;;21.70;99.90;;;;;;5042932;28;20192;-82
2023/05/30 10:38:43;;;;;;;0.10;0.10;;;21.60;99.90;;;;;;5042702;28;20709;-81
2023/05/30 10:41:24;;;;;;;0.10;0.10;;;21.50;99.90;;;;;;5031077;28;20197;-81
2023/05/30 10:44:12;;;;;;;0.10;0.10;;;21.00;99.90;;;;;;5038956;28;20209;-82
2023/05/30 10:46:46;;;;;;;0.10;0.10;;;21.20;99.90;;;;;;5048336;28;20232;-82
2023/05/30 10:49:18;;;;;;;0.10;0.10;;;21.20;99.90;;;;;;5041642;28;20177;-82
2023/05/30 10:52:04;;;;;;;0.10;0.10;;;21.30;99.90;;;;;;5043556;28;20185;-82
2023/05/30 10:54:32;;;;;;;1.70;1.40;;;21.30;99.90;;;;;;5041590;28;20297;-82
2023/05/30 10:57:00;;;;;;;0.10;0.10;;;21.60;99.90;;;;;;5037130;28;20671;-82
2023/05/30 10:59:25;;;;;;;0.10;0.10;;;22.00;99.90;;;;;;5046048;28;20185;-82
2023/05/30 11:02:07;;;;;;;0.10;0.10;;;21.50;99.90;;;;;;5042211;28;20204;-81
2023/05/30 11:04:42;;;;;;;0.10;0.10;;;21.70;99.90;;;;;;5041816;28;20224;-82
2023/05/30 11:07:09;;;;;;;0.10;0.10;;;21.60;99.90;;;;;;5045618;28;20546;-81
2023/05/30 11:09:41;;;;;;;0.10;0.10;;;22.00;99.90;;;;;;5039717;28;20733;-82
2023/05/30 11:12:08;;;;;;;0.10;0.10;;;21.60;99.90;;;;;;5041438;28;20185;-82
2023/05/30 11:14:35;;;;;;;0.10;0.10;;;21.70;99.90;;;;;;5041625;28;20233;-82
2023/05/30 11:17:04;;;;;;;0.20;0.20;;;21.50;99.90;;;;;;5040894;28;20214;-82
2023/05/30 11:19:40;;;;;;;0.10;0.10;;;21.80;99.90;;;;;;5040459;28;20189;-82
2023/05/30 11:22:12;;;;;;;0.10;0.10;;;21.50;99.90;;;;;;5040265;28;20178;-82
2023/05/30 11:24:38;;;;;;;0.10;0.10;;;22.00;99.90;;;;;;5037063;28;20217;-82
2023/05/30 11:27:05;;;;;;;0.10;0.10;;;21.80;99.90;;;;;;5043173;28;20218;-82
2023/05/30 11:29:53;;;;;;;0.10;0.10;;;22.40;99.90;;;;;;5042690;28;20268;-82
2023/05/30 11:32:22;;;;;;;0.10;0.10;;;22.10;99.90;;;;;;5040298;28;20174;-82
2023/05/30 11:34:57;;;;;;;0.20;0.20;;;21.80;99.90;;;;;;5042633;28;20198;-83
2023/05/30 11:37:23;;;;;;;0.10;0.10;;;21.80;99.90;;;;;;5042277;28;20185;-83
2023/05/30 11:39:54;;;;;;;0.10;0.10;;;21.80;99.90;;;;;;5041542;28;20242;-83
2023/05/30 11:42:20;;;;;;;0.10;0.10;;;21.80;99.90;;;;;;5041085;28;20201;-82
2023/05/30 11:44:45;;;;;;;0.10;0.10;;;22.10;99.90;;;;;;5040906;28;20201;-83
2023/05/30 11:47:14;;;;;;;0.10;0.10;;;22.10;99.90;;;;;;5041253;28;20737;-83
2023/05/30 11:49:40;;;;;;;0.10;0.10;;;22.00;99.90;;;;;;5043666;28;20220;-84
2023/05/30 11:52:06;;;;;;;0.10;0.10;;;22.40;99.90;;;;;;5040596;28;20187;-83
2023/05/30 11:54:33;;;;;;;0.10;0.10;;;22.50;99.90;;;;;;5038165;28;20206;-83
2023/05/30 11:56:58;;;;;;;0.10;0.10;;;22.50;99.90;;;;;;5041392;28;20239;-82
2023/05/30 11:59:25;;;;;;;0.10;0.10;;;22.70;99.90;;;;;;5040857;28;20205;-82
2023/05/30 12:02:01;;;;;;;0.10;0.10;;;22.40;99.90;;;;;;5040053;28;20184;-83
2023/05/30 12:04:30;;;;;;;0.10;0.10;;;22.30;99.90;;;;;;5038531;28;20262;-83
2023/05/30 12:07:04;;;;;;;0.10;0.10;;;22.40;99.90;;;;;;5037361;28;20222;-82
2023/05/30 12:09:36;;;;;;;0.10;0.10;;;22.60;99.90;;;;;;5038294;28;20347;-82
2023/05/30 12:12:02;;;;;;;0.10;0.10;;;22.10;99.90;;;;;;5040266;28;20253;-82
2023/05/30 12:14:38;;;;;;;0.10;0.10;;;22.40;99.90;;;;;;5040859;28;20308;-82
2023/05/30 12:17:18;;;;;;;0.10;0.10;;;22.40;99.90;;;;;;5036713;28;20189;-83
2023/05/30 12:19:44;;;;;;;0.10;0.10;;;22.30;99.90;;;;;;5036642;28;20185;-82
2023/05/30 12:22:11;;;;;;;0.10;0.10;;;22.40;99.90;;;;;;5039059;28;20729;-83
2023/05/30 12:24:37;;;;;;;0.10;0.10;;;22.50;99.90;;;;;;5038102;28;20670;-81
2023/05/30 12:27:14;;;;;;;0.10;0.10;;;23.00;99.90;;;;;;5037719;28;20212;-80
2023/05/30 12:29:40;;;;;;;0.10;0.10;;;22.80;99.90;;;;;;5041105;28;20556;-81
2023/05/30 12:32:06;;;;;;;0.10;0.10;;;23.10;99.90;;;;;;5044233;28;20256;-81
2023/05/30 12:34:42;;;;;;;0.10;0.10;;;22.90;99.90;;;;;;5036672;28;20416;-81
2023/05/30 12:37:12;;;;;;;0.10;0.10;;;22.70;99.90;;;;;;5039344;28;20231;-81
2023/05/30 12:39:46;;;;;;;0.10;0.10;;;22.80;99.90;;;;;;5037162;28;20186;-80
2023/05/30 12:42:11;;;;;;;0.10;0.10;;;22.50;99.90;;;;;;5037465;28;20229;-80
2023/05/30 12:44:48;;;;;;;0.10;0.10;;;22.40;99.90;;;;;;5038711;28;20625;-80
2023/05/30 12:47:14;;;;;;;0.10;0.10;;;22.60;99.90;;;;;;5040495;28;20201;-81
2023/05/30 12:49:40;;;;;;;0.10;0.10;;;22.70;99.90;;;;;;5041007;28;20213;-81